createdAt,value
2024-04-06T00:00:05.991Z,20.05
2024-04-06T00:01:12.336Z,20.04
2024-04-06T00:02:18.698Z,20.04
2024-04-06T00:03:26.472Z,20.04
2024-04-06T00:04:32.830Z,20.04
2024-04-06T00:05:39.469Z,20.03
2024-04-06T00:06:45.779Z,20.03
2024-04-06T00:07:56.998Z,20.02
2024-04-06T00:09:03.346Z,20.02
2024-04-06T00:10:09.667Z,20.02
2024-04-06T00:11:16.004Z,20.01
2024-04-06T00:12:22.306Z,20.01
2024-04-06T00:13:28.622Z,20.00
2024-04-06T00:14:34.959Z,20.00
2024-04-06T00:15:41.272Z,20.00
2024-04-06T00:16:47.593Z,19.99
2024-04-06T00:17:53.919Z,19.99
2024-04-06T00:19:00.243Z,19.99
2024-04-06T00:20:06.562Z,19.98
2024-04-06T00:21:12.875Z,19.98
2024-04-06T00:22:19.209Z,19.98
2024-04-06T00:23:25.565Z,19.97
2024-04-06T00:24:31.874Z,19.97
2024-04-06T00:25:38.198Z,19.97
2024-04-06T00:26:44.534Z,19.96
2024-04-06T00:27:50.870Z,19.96
2024-04-06T00:28:57.179Z,19.95
2024-04-06T00:30:03.494Z,19.95
2024-04-06T00:31:09.812Z,19.95
2024-04-06T00:32:16.130Z,19.95
2024-04-06T00:33:22.446Z,19.94
2024-04-06T00:34:28.753Z,19.94
2024-04-06T00:35:35.086Z,19.93
2024-04-06T00:36:41.411Z,19.93
2024-04-06T00:37:47.731Z,19.93
2024-04-06T00:38:54.049Z,19.93
2024-04-06T00:40:00.368Z,19.92
2024-04-06T00:41:06.693Z,19.92
2024-04-06T00:42:13.051Z,19.92
2024-04-06T00:43:19.363Z,19.91
2024-04-06T00:44:25.708Z,19.91
2024-04-06T00:45:32.008Z,19.90
2024-04-06T00:46:38.323Z,19.90
2024-04-06T00:47:44.654Z,19.90
2024-04-06T00:48:51.016Z,19.89
2024-04-06T00:49:57.368Z,19.89
2024-04-06T00:51:03.695Z,19.88
2024-04-06T00:52:10.027Z,19.88
2024-04-06T00:53:16.349Z,19.88
2024-04-06T00:54:22.666Z,19.87
2024-04-06T00:55:28.978Z,19.87
2024-04-06T00:56:35.291Z,19.87
2024-04-06T00:57:41.617Z,19.86
2024-04-06T00:58:47.940Z,19.86
2024-04-06T00:59:54.279Z,19.86
2024-04-06T01:01:00.598Z,19.86
2024-04-06T01:02:06.921Z,19.85
2024-04-06T01:03:13.226Z,19.85
2024-04-06T01:04:19.552Z,19.85
2024-04-06T01:05:25.933Z,19.84
2024-04-06T01:06:32.232Z,19.84
2024-04-06T01:07:38.552Z,19.84
2024-04-06T01:08:44.879Z,19.83
2024-04-06T01:09:51.212Z,19.83
2024-04-06T01:10:57.535Z,19.83
2024-04-06T01:12:03.873Z,19.82
2024-04-06T01:13:10.196Z,19.82
2024-04-06T01:14:16.510Z,19.82
2024-04-06T01:15:22.847Z,19.81
2024-04-06T01:16:29.174Z,19.81
2024-04-06T01:17:35.548Z,19.81
2024-04-06T01:18:41.846Z,19.80
2024-04-06T01:19:48.240Z,19.80
2024-04-06T01:20:54.569Z,19.80
2024-04-06T01:22:00.890Z,19.80
2024-04-06T01:23:07.211Z,19.79
2024-04-06T01:24:13.532Z,19.79
2024-04-06T01:25:19.865Z,19.78
2024-04-06T01:26:26.231Z,19.78
2024-04-06T01:27:32.559Z,19.78
2024-04-06T01:28:38.888Z,19.78
2024-04-06T01:29:45.213Z,19.78
2024-04-06T01:30:51.530Z,19.78
2024-04-06T01:31:57.880Z,19.77
2024-04-06T01:33:04.202Z,19.77
2024-04-06T01:34:10.518Z,19.77
2024-04-06T01:35:16.843Z,19.77
2024-04-06T01:36:23.169Z,19.76
2024-04-06T01:37:29.512Z,19.76
2024-04-06T01:38:35.833Z,19.75
2024-04-06T01:39:42.143Z,19.75
2024-04-06T01:40:48.474Z,19.75
2024-04-06T01:41:54.801Z,19.75
2024-04-06T01:43:01.141Z,19.74
2024-04-06T01:44:07.470Z,19.74
2024-04-06T01:45:13.788Z,19.74
2024-04-06T01:46:20.115Z,19.74
2024-04-06T01:47:26.468Z,19.73
2024-04-06T01:48:32.779Z,19.73
2024-04-06T01:49:39.115Z,19.72
2024-04-06T01:50:45.494Z,19.72
2024-04-06T01:51:51.772Z,19.72
2024-04-06T01:52:58.101Z,19.71
2024-04-06T01:54:04.397Z,19.71
2024-04-06T01:55:10.740Z,19.71
2024-04-06T01:56:17.053Z,19.71
2024-04-06T01:57:23.385Z,19.71
2024-04-06T01:58:29.732Z,19.71
2024-04-06T01:59:36.051Z,19.71
2024-04-06T02:00:42.392Z,19.70
2024-04-06T02:01:48.707Z,19.70
2024-04-06T02:02:55.036Z,19.70
2024-04-06T02:04:01.354Z,19.70
2024-04-06T02:05:07.736Z,19.70
2024-04-06T02:06:14.027Z,19.69
2024-04-06T02:07:20.337Z,19.68
2024-04-06T02:08:26.670Z,19.69
2024-04-06T02:09:33.014Z,19.69
2024-04-06T02:10:39.356Z,19.68
2024-04-06T02:11:45.845Z,19.68
2024-04-06T02:12:52.209Z,19.67
2024-04-06T02:13:58.532Z,19.67
2024-04-06T02:15:04.857Z,19.67
2024-04-06T02:16:11.181Z,19.66
2024-04-06T02:17:17.509Z,19.66
2024-04-06T02:18:23.834Z,19.65
2024-04-06T02:19:30.145Z,19.65
2024-04-06T02:20:36.455Z,19.65
2024-04-06T02:21:42.793Z,19.65
2024-04-06T02:22:49.128Z,19.64
2024-04-06T02:23:55.439Z,19.64
2024-04-06T02:25:01.823Z,19.63
2024-04-06T02:26:08.130Z,19.63
2024-04-06T02:27:14.455Z,19.63
2024-04-06T02:28:20.801Z,19.63
2024-04-06T02:29:27.145Z,19.63
2024-04-06T02:30:33.431Z,19.62
2024-04-06T02:31:39.743Z,19.62
2024-04-06T02:32:46.064Z,19.62
2024-04-06T02:33:52.400Z,19.62
2024-04-06T02:34:58.726Z,19.62
2024-04-06T02:36:05.049Z,19.62
2024-04-06T02:37:11.366Z,19.61
2024-04-06T02:38:17.699Z,19.61
2024-04-06T02:39:24.038Z,19.60
2024-04-06T02:40:30.351Z,19.60
2024-04-06T02:41:36.671Z,19.60
2024-04-06T02:42:42.998Z,19.60
2024-04-06T02:43:49.315Z,19.60
2024-04-06T02:44:55.658Z,19.59
2024-04-06T02:46:01.972Z,19.59
2024-04-06T02:47:08.284Z,19.58
2024-04-06T02:48:14.597Z,19.59
2024-04-06T02:49:20.918Z,19.58
2024-04-06T02:50:27.246Z,19.58
2024-04-06T02:51:33.560Z,19.58
2024-04-06T02:52:39.900Z,19.58
2024-04-06T02:53:46.231Z,19.58
2024-04-06T02:54:52.538Z,19.57
2024-04-06T02:55:58.876Z,19.58
2024-04-06T02:57:05.206Z,19.57
2024-04-06T02:58:11.534Z,19.57
2024-04-06T02:59:17.861Z,19.57
2024-04-06T03:00:24.187Z,19.57
2024-04-06T03:01:30.520Z,19.56
2024-04-06T03:02:36.848Z,19.56
2024-04-06T03:03:43.168Z,19.56
2024-04-06T03:04:49.489Z,19.56
2024-04-06T03:05:55.814Z,19.56
2024-04-06T03:07:02.162Z,19.55
2024-04-06T03:08:08.474Z,19.55
2024-04-06T03:09:14.789Z,19.55
2024-04-06T03:10:21.101Z,19.54
2024-04-06T03:11:27.467Z,19.54
2024-04-06T03:12:33.765Z,19.54
2024-04-06T03:13:40.074Z,19.54
2024-04-06T03:14:46.390Z,19.53
2024-04-06T03:15:52.708Z,19.53
2024-04-06T03:16:59.027Z,19.53
2024-04-06T03:18:05.374Z,19.53
2024-04-06T03:19:11.682Z,19.53
2024-04-06T03:20:17.999Z,19.53
2024-04-06T03:21:24.315Z,19.52
2024-04-06T03:22:30.643Z,19.52
2024-04-06T03:23:36.969Z,19.52
2024-04-06T03:24:43.288Z,19.52
2024-04-06T03:25:49.603Z,19.51
2024-04-06T03:26:55.926Z,19.52
2024-04-06T03:28:02.245Z,19.52
2024-04-06T03:29:08.611Z,19.51
2024-04-06T03:30:14.902Z,19.51
2024-04-06T03:31:21.216Z,19.51
2024-04-06T03:32:27.608Z,19.51
2024-04-06T03:33:33.907Z,19.50
2024-04-06T03:34:40.248Z,19.51
2024-04-06T03:35:46.553Z,19.50
2024-04-06T03:36:52.873Z,19.49
2024-04-06T03:37:59.193Z,19.50
2024-04-06T03:39:05.512Z,19.49
2024-04-06T03:40:11.835Z,19.49
2024-04-06T03:41:18.175Z,19.49
2024-04-06T03:42:24.504Z,19.49
2024-04-06T03:43:30.819Z,19.49
2024-04-06T03:44:37.139Z,19.49
2024-04-06T03:45:43.459Z,19.48
2024-04-06T03:46:49.784Z,19.48
2024-04-06T03:47:56.106Z,19.48
2024-04-06T03:49:02.434Z,19.47
2024-04-06T03:50:08.748Z,19.47
2024-04-06T03:51:15.076Z,19.46
2024-04-06T03:52:21.398Z,19.46
2024-04-06T03:53:27.725Z,19.45
2024-04-06T03:54:34.039Z,19.47
2024-04-06T03:55:40.380Z,19.45
2024-04-06T03:56:46.690Z,19.45
2024-04-06T03:57:53.019Z,19.45
2024-04-06T03:58:59.332Z,19.45
2024-04-06T04:00:05.645Z,19.44
2024-04-06T04:01:11.969Z,19.44
2024-04-06T04:02:18.307Z,19.44
2024-04-06T04:03:24.630Z,19.44
2024-04-06T04:04:30.963Z,19.44
2024-04-06T04:05:37.267Z,19.43
2024-04-06T04:06:43.649Z,19.43
2024-04-06T04:07:49.977Z,19.43
2024-04-06T04:08:56.300Z,19.43
2024-04-06T04:10:02.626Z,19.43
2024-04-06T04:11:08.930Z,19.42
2024-04-06T04:12:15.274Z,19.42
2024-04-06T04:13:21.590Z,19.41
2024-04-06T04:14:27.947Z,19.42
2024-04-06T04:15:34.267Z,19.41
2024-04-06T04:16:40.559Z,19.41
2024-04-06T04:17:46.876Z,19.41
2024-04-06T04:18:53.193Z,19.41
2024-04-06T04:19:59.500Z,19.41
2024-04-06T04:21:05.821Z,19.40
2024-04-06T04:22:12.141Z,19.40
2024-04-06T04:23:18.461Z,19.40
2024-04-06T04:24:24.805Z,19.40
2024-04-06T04:25:31.118Z,19.40
2024-04-06T04:26:37.448Z,19.39
2024-04-06T04:27:43.797Z,19.39
2024-04-06T04:28:50.069Z,19.39
2024-04-06T04:29:56.406Z,19.39
2024-04-06T04:31:02.724Z,19.39
2024-04-06T04:32:09.041Z,19.38
2024-04-06T04:33:15.354Z,19.38
2024-04-06T04:34:21.675Z,19.39
2024-04-06T04:35:28.054Z,19.38
2024-04-06T04:36:34.374Z,19.38
2024-04-06T04:37:40.678Z,19.38
2024-04-06T04:38:46.997Z,19.38
2024-04-06T04:39:53.308Z,19.38
2024-04-06T04:40:59.634Z,19.38
2024-04-06T04:42:05.953Z,19.38
2024-04-06T04:43:12.284Z,19.37
2024-04-06T04:44:35.404Z,19.37
2024-04-06T04:45:29.866Z,19.37
2024-04-06T04:46:36.166Z,19.37
2024-04-06T04:47:42.610Z,19.36
2024-04-06T04:48:48.911Z,19.36
2024-04-06T04:49:55.247Z,19.36
2024-04-06T04:51:01.579Z,19.36
2024-04-06T04:52:07.886Z,19.36
2024-04-06T04:53:14.207Z,19.36
2024-04-06T04:54:20.522Z,19.35
2024-04-06T04:55:26.857Z,19.35
2024-04-06T04:56:33.213Z,19.35
2024-04-06T04:57:39.536Z,19.35
2024-04-06T04:58:45.832Z,19.35
2024-04-06T04:59:52.162Z,19.35
2024-04-06T05:00:58.512Z,19.35
2024-04-06T05:02:04.815Z,19.35
2024-04-06T05:03:11.143Z,19.35
2024-04-06T05:04:17.453Z,19.36
2024-04-06T05:05:23.776Z,19.35
2024-04-06T05:06:30.091Z,19.35
2024-04-06T05:07:36.402Z,19.35
2024-04-06T05:08:42.723Z,19.35
2024-04-06T05:09:49.049Z,19.35
2024-04-06T05:10:55.382Z,19.36
2024-04-06T05:12:01.724Z,19.36
2024-04-06T05:13:08.041Z,19.36
2024-04-06T05:14:14.387Z,19.36
2024-04-06T05:15:20.683Z,19.35
2024-04-06T05:16:26.995Z,19.36
2024-04-06T05:17:33.357Z,19.37
2024-04-06T05:18:39.685Z,19.37
2024-04-06T05:19:45.999Z,19.37
2024-04-06T05:20:52.311Z,19.37
2024-04-06T05:21:58.635Z,19.38
2024-04-06T05:23:04.967Z,19.38
2024-04-06T05:24:11.280Z,19.38
2024-04-06T05:25:17.604Z,19.39
2024-04-06T05:26:23.915Z,19.39
2024-04-06T05:27:30.245Z,19.39
2024-04-06T05:28:36.566Z,19.39
2024-04-06T05:29:42.879Z,19.41
2024-04-06T05:30:49.224Z,19.41
2024-04-06T05:31:55.536Z,19.42
2024-04-06T05:33:01.889Z,19.43
2024-04-06T05:34:08.182Z,19.44
2024-04-06T05:35:14.489Z,19.45
2024-04-06T05:36:20.816Z,19.45
2024-04-06T05:37:27.144Z,19.47
2024-04-06T05:38:33.457Z,19.49
2024-04-06T05:39:39.775Z,19.51
2024-04-06T05:40:46.098Z,19.52
2024-04-06T05:41:52.420Z,19.54
2024-04-06T05:42:58.759Z,19.55
2024-04-06T05:44:07.514Z,19.57
2024-04-06T05:45:13.898Z,19.60
2024-04-06T05:46:20.218Z,19.63
2024-04-06T05:47:26.589Z,19.66
2024-04-06T05:48:32.901Z,19.69
2024-04-06T05:49:39.219Z,19.71
2024-04-06T05:50:45.538Z,19.74
2024-04-06T05:51:51.856Z,19.76
2024-04-06T05:52:58.377Z,19.78
2024-04-06T05:54:04.666Z,19.81
2024-04-06T05:55:10.987Z,19.84
2024-04-06T05:56:17.305Z,19.87
2024-04-06T05:57:23.627Z,19.90
2024-04-06T05:58:32.654Z,19.92
2024-04-06T05:59:39.835Z,19.95
2024-04-06T06:00:46.161Z,19.98
2024-04-06T06:01:52.474Z,20.01
2024-04-06T06:02:58.792Z,20.05
2024-04-06T06:04:05.121Z,20.08
2024-04-06T06:05:13.749Z,20.11
2024-04-06T06:06:20.382Z,20.15
2024-04-06T06:07:26.704Z,20.20
2024-04-06T06:08:33.035Z,20.25
2024-04-06T06:09:39.338Z,20.29
2024-04-06T06:10:45.713Z,20.33
2024-04-06T06:11:52.024Z,20.37
2024-04-06T06:12:58.438Z,20.41
2024-04-06T06:14:04.723Z,20.44
2024-04-06T06:15:11.047Z,20.47
2024-04-06T06:16:17.381Z,20.50
2024-04-06T06:17:23.695Z,20.54
2024-04-06T06:18:30.005Z,20.58
2024-04-06T06:19:36.322Z,20.61
2024-04-06T06:20:42.668Z,20.64
2024-04-06T06:21:48.981Z,20.67
2024-04-06T06:22:55.294Z,20.70
2024-04-06T06:24:01.616Z,20.74
2024-04-06T06:25:07.926Z,20.78
2024-04-06T06:26:14.276Z,20.81
2024-04-06T06:27:20.583Z,20.85
2024-04-06T06:28:26.905Z,20.89
2024-04-06T06:29:33.269Z,20.93
2024-04-06T06:30:39.553Z,20.98
2024-04-06T06:31:45.916Z,21.02
2024-04-06T06:32:52.243Z,21.06
2024-04-06T06:33:58.615Z,21.10
2024-04-06T06:35:04.893Z,21.14
2024-04-06T06:38:29.689Z,21.29
2024-04-06T06:40:45.309Z,21.40
2024-04-06T06:41:51.610Z,21.45
2024-04-06T06:42:57.952Z,21.49
2024-04-06T06:44:04.286Z,21.55
2024-04-06T06:45:10.606Z,21.61
2024-04-06T06:46:16.937Z,21.66
2024-04-06T06:47:23.276Z,21.71
2024-04-06T06:48:29.567Z,21.76
2024-04-06T06:49:35.886Z,21.80
2024-04-06T06:50:42.241Z,21.82
2024-04-06T06:51:48.569Z,21.86
2024-04-06T06:52:54.889Z,21.88
2024-04-06T06:54:01.199Z,21.90
2024-04-06T06:55:07.513Z,21.92
2024-04-06T06:56:14.057Z,21.94
2024-04-06T06:57:20.435Z,21.95
2024-04-06T06:58:26.759Z,21.96
2024-04-06T07:00:42.361Z,21.97
2024-04-06T07:01:48.641Z,21.97
2024-04-06T07:02:54.960Z,21.99
2024-04-06T07:04:01.276Z,22.01
2024-04-06T07:05:07.592Z,22.02
2024-04-06T07:07:05.906Z,22.04
2024-04-06T07:07:25.161Z,22.05
2024-04-06T07:08:31.473Z,22.06
2024-04-06T07:09:37.788Z,22.09
2024-04-06T07:10:44.177Z,22.12
2024-04-06T07:11:50.457Z,22.13
2024-04-06T07:12:56.789Z,22.16
2024-04-06T07:14:03.111Z,22.18
2024-04-06T07:15:09.428Z,22.19
2024-04-06T07:16:15.755Z,22.22
2024-04-06T07:17:25.015Z,22.25
2024-04-06T07:18:32.725Z,22.29
2024-04-06T07:19:39.026Z,22.32
2024-04-06T07:20:45.343Z,22.36
2024-04-06T07:21:51.657Z,22.39
2024-04-06T07:22:57.983Z,22.43
2024-04-06T07:24:04.313Z,22.47
2024-04-06T07:25:10.668Z,22.50
2024-04-06T07:26:16.965Z,22.54
2024-04-06T07:27:23.281Z,22.57
2024-04-06T07:28:29.593Z,22.60
2024-04-06T07:29:35.922Z,22.63
2024-04-06T07:30:42.246Z,22.67
2024-04-06T07:31:48.584Z,22.69
2024-04-06T07:32:57.616Z,22.72
2024-04-06T07:34:04.003Z,22.75
2024-04-06T07:35:10.313Z,22.77
2024-04-06T07:36:16.648Z,22.77
2024-04-06T07:37:22.973Z,22.76
2024-04-06T07:38:29.301Z,22.76
2024-04-06T07:39:35.613Z,22.76
2024-04-06T07:40:41.941Z,22.77
2024-04-06T07:41:48.292Z,22.79
2024-04-06T07:42:54.606Z,22.81
2024-04-06T07:44:00.928Z,22.77
2024-04-06T07:45:07.241Z,22.74
2024-04-06T07:46:13.580Z,22.72
2024-04-06T07:47:19.940Z,22.69
2024-04-06T07:48:26.256Z,22.65
2024-04-06T07:49:32.606Z,22.60
2024-04-06T07:50:38.974Z,22.56
2024-04-06T07:51:45.360Z,22.52
2024-04-06T07:52:56.221Z,22.49
2024-04-06T07:54:02.879Z,22.46
2024-04-06T07:55:09.272Z,22.43
2024-04-06T07:56:15.555Z,22.40
2024-04-06T07:57:21.885Z,22.37
2024-04-06T07:58:28.227Z,22.36
2024-04-06T07:59:34.563Z,22.34
2024-04-06T08:00:40.868Z,22.33
2024-04-06T08:01:47.185Z,22.33
2024-04-06T08:02:53.505Z,22.32
2024-04-06T08:03:59.834Z,22.31
2024-04-06T08:05:06.159Z,22.29
2024-04-06T08:06:12.469Z,22.29
2024-04-06T08:07:18.799Z,22.28
2024-04-06T08:08:25.125Z,22.27
2024-04-06T08:09:31.459Z,22.27
2024-04-06T08:10:37.794Z,22.26
2024-04-06T08:11:44.175Z,22.25
2024-04-06T08:12:50.527Z,22.23
2024-04-06T08:13:56.839Z,22.22
2024-04-06T08:15:03.159Z,22.22
2024-04-06T08:16:09.518Z,22.22
2024-04-06T08:17:15.809Z,22.21
2024-04-06T08:18:22.122Z,22.21
2024-04-06T08:19:28.439Z,22.22
2024-04-06T08:20:34.770Z,22.22
2024-04-06T08:21:41.089Z,22.21
2024-04-06T08:22:47.403Z,22.22
2024-04-06T08:23:53.719Z,22.22
2024-04-06T08:25:00.033Z,22.22
2024-04-06T08:26:06.359Z,22.23
2024-04-06T08:27:12.664Z,22.23
2024-04-06T08:28:19.001Z,22.22
2024-04-06T08:29:25.317Z,22.22
2024-04-06T08:30:31.639Z,22.22
2024-04-06T08:31:37.943Z,22.22
2024-04-06T08:32:44.337Z,22.22
2024-04-06T08:33:50.631Z,22.22
2024-04-06T08:34:56.938Z,22.21
2024-04-06T08:36:03.261Z,22.21
2024-04-06T08:37:09.629Z,22.21
2024-04-06T08:38:15.920Z,22.20
2024-04-06T08:39:22.260Z,22.20
2024-04-06T08:40:28.589Z,22.19
2024-04-06T08:41:34.907Z,22.19
2024-04-06T08:42:41.240Z,22.19
2024-04-06T08:43:47.542Z,22.18
2024-04-06T08:44:53.857Z,22.18
2024-04-06T08:46:00.174Z,22.17
2024-04-06T08:47:06.494Z,22.17
2024-04-06T08:48:12.816Z,22.17
2024-04-06T08:49:19.136Z,22.17
2024-04-06T08:50:26.002Z,22.17
2024-04-06T08:51:32.383Z,22.16
2024-04-06T08:52:38.702Z,22.16
2024-04-06T08:53:44.995Z,22.15
2024-04-06T08:54:51.318Z,22.15
2024-04-06T08:55:57.637Z,22.15
2024-04-06T08:57:03.978Z,22.15
2024-04-06T08:58:10.329Z,22.15
2024-04-06T08:59:16.622Z,22.14
2024-04-06T09:00:22.959Z,22.14
2024-04-06T09:01:29.264Z,22.13
2024-04-06T09:02:35.604Z,22.13
2024-04-06T09:03:41.918Z,22.13
2024-04-06T09:04:48.237Z,22.13
2024-04-06T09:05:54.584Z,22.13
2024-04-06T09:07:00.906Z,22.13
2024-04-06T09:08:07.261Z,22.13
2024-04-06T09:09:13.551Z,22.13
2024-04-06T09:10:19.942Z,22.13
2024-04-06T09:11:26.238Z,22.12
2024-04-06T09:12:32.539Z,22.12
2024-04-06T09:13:38.871Z,22.11
2024-04-06T09:14:45.179Z,22.11
2024-04-06T09:15:51.505Z,22.11
2024-04-06T09:16:57.844Z,22.11
2024-04-06T09:18:04.136Z,22.10
2024-04-06T09:19:10.513Z,22.10
2024-04-06T09:20:16.809Z,22.10
2024-04-06T09:21:23.127Z,22.09
2024-04-06T09:22:29.442Z,22.09
2024-04-06T09:23:35.767Z,22.09
2024-04-06T09:24:42.098Z,22.08
2024-04-06T09:25:48.416Z,22.08
2024-04-06T09:26:54.751Z,22.08
2024-04-06T09:28:01.065Z,22.07
2024-04-06T09:29:07.430Z,22.07
2024-04-06T09:30:13.709Z,22.07
2024-04-06T09:31:20.028Z,22.07
2024-04-06T09:32:26.395Z,22.07
2024-04-06T09:33:32.702Z,22.07
2024-04-06T09:34:39.033Z,22.07
2024-04-06T09:35:45.339Z,22.08
2024-04-06T09:36:51.677Z,22.08
2024-04-06T09:37:58.039Z,22.08
2024-04-06T09:39:04.354Z,22.08
2024-04-06T09:40:10.676Z,22.08
2024-04-06T09:41:17.007Z,22.08
2024-04-06T09:42:23.310Z,22.08
2024-04-06T09:43:29.638Z,22.08
2024-04-06T09:44:35.967Z,22.08
2024-04-06T09:45:42.275Z,22.08
2024-04-06T09:46:48.597Z,22.08
2024-04-06T09:47:54.915Z,22.08
2024-04-06T09:49:01.243Z,22.08
2024-04-06T09:50:07.558Z,22.09
2024-04-06T09:51:13.880Z,22.09
2024-04-06T09:52:20.198Z,22.10
2024-04-06T09:53:26.958Z,22.09
2024-04-06T09:54:33.268Z,22.10
2024-04-06T09:55:39.568Z,22.10
2024-04-06T09:56:45.876Z,22.10
2024-04-06T09:57:52.191Z,22.10
2024-04-06T09:58:58.545Z,22.10
2024-04-06T10:00:04.870Z,22.10
2024-04-06T10:01:11.260Z,22.09
2024-04-06T10:02:17.569Z,22.10
2024-04-06T10:03:23.894Z,22.10
2024-04-06T10:04:30.234Z,22.09
2024-04-06T10:05:36.551Z,22.09
2024-04-06T10:06:42.881Z,22.08
2024-04-06T10:07:49.263Z,22.09
2024-04-06T10:08:55.586Z,22.08
2024-04-06T10:10:01.928Z,22.09
2024-04-06T10:11:08.238Z,22.09
2024-04-06T10:12:14.556Z,22.09
2024-04-06T10:13:20.896Z,22.09
2024-04-06T10:14:27.200Z,22.08
2024-04-06T10:15:33.547Z,22.09
2024-04-06T10:16:39.855Z,22.09
2024-04-06T10:17:46.189Z,22.09
2024-04-06T10:18:52.508Z,22.09
2024-04-06T10:20:00.587Z,22.09
2024-04-06T10:21:07.197Z,22.09
2024-04-06T10:22:13.548Z,22.08
2024-04-06T10:23:19.846Z,22.10
2024-04-06T10:24:26.150Z,22.09
2024-04-06T10:25:32.478Z,22.09
2024-04-06T10:26:38.807Z,22.10
2024-04-06T10:27:45.122Z,22.11
2024-04-06T10:28:51.508Z,22.11
2024-04-06T10:29:57.817Z,22.11
2024-04-06T10:31:04.136Z,22.11
2024-04-06T10:32:10.461Z,22.11
2024-04-06T10:33:16.792Z,22.11
2024-04-06T10:34:24.383Z,22.11
2024-04-06T10:35:32.060Z,22.12
2024-04-06T10:36:38.394Z,22.12
2024-04-06T10:37:44.701Z,22.12
2024-04-06T10:38:51.031Z,22.12
2024-04-06T10:39:57.344Z,22.12
2024-04-06T10:41:03.676Z,22.12
2024-04-06T10:42:09.985Z,22.13
2024-04-06T10:43:16.321Z,22.13
2024-04-06T10:44:22.646Z,22.13
2024-04-06T10:45:28.956Z,22.13
2024-04-06T10:46:35.268Z,22.13
2024-04-06T10:47:41.596Z,22.14
2024-04-06T10:48:47.922Z,22.14
2024-04-06T10:49:54.260Z,22.15
2024-04-06T10:51:00.617Z,22.15
2024-04-06T10:52:06.911Z,22.15
2024-04-06T10:53:13.240Z,22.15
2024-04-06T10:54:19.553Z,22.15
2024-04-06T10:55:26.071Z,22.16
2024-04-06T10:56:32.390Z,22.17
2024-04-06T10:57:38.697Z,22.17
2024-04-06T10:58:45.028Z,22.17
2024-04-06T10:59:51.331Z,22.18
2024-04-06T11:00:57.665Z,22.18
2024-04-06T11:02:03.995Z,22.18
2024-04-06T11:03:10.312Z,22.19
2024-04-06T11:04:16.644Z,22.19
2024-04-06T11:05:22.946Z,22.19
2024-04-06T11:06:29.293Z,22.20
2024-04-06T11:07:35.599Z,22.20
2024-04-06T11:08:41.918Z,22.20
2024-04-06T11:09:48.232Z,22.21
2024-04-06T11:10:54.552Z,22.21
2024-04-06T11:12:00.884Z,22.21
2024-04-06T11:13:07.217Z,22.21
2024-04-06T11:14:13.539Z,22.22
2024-04-06T11:15:19.867Z,22.22
2024-04-06T11:16:26.181Z,22.22
2024-04-06T11:17:32.547Z,22.22
2024-04-06T11:18:38.841Z,22.22
2024-04-06T11:19:45.168Z,22.22
2024-04-06T11:20:51.496Z,22.22
2024-04-06T11:21:57.818Z,22.23
2024-04-06T11:23:04.162Z,22.23
2024-04-06T11:24:10.466Z,22.23
2024-04-06T11:25:16.839Z,22.23
2024-04-06T11:26:23.165Z,22.24
2024-04-06T11:27:29.484Z,22.23
2024-04-06T11:28:35.803Z,22.24
2024-04-06T11:29:42.133Z,22.24
2024-04-06T11:30:48.444Z,22.24
2024-04-06T11:31:54.766Z,22.24
2024-04-06T11:33:01.079Z,22.23
2024-04-06T11:34:07.410Z,22.24
2024-04-06T11:35:13.762Z,22.24
2024-04-06T11:36:20.090Z,22.24
2024-04-06T11:37:26.399Z,22.24
2024-04-06T11:38:32.715Z,22.24
2024-04-06T11:39:39.038Z,22.25
2024-04-06T11:40:45.347Z,22.26
2024-04-06T11:41:51.674Z,22.26
2024-04-06T11:42:57.986Z,22.26
2024-04-06T11:44:04.321Z,22.26
2024-04-06T11:45:10.617Z,22.26
2024-04-06T11:46:16.965Z,22.27
2024-04-06T11:47:23.264Z,22.27
2024-04-06T11:48:31.857Z,22.27
2024-04-06T11:49:38.430Z,22.27
2024-04-06T11:50:44.736Z,22.27
2024-04-06T11:51:51.063Z,22.27
2024-04-06T11:52:57.383Z,22.28
2024-04-06T11:54:03.702Z,22.28
2024-04-06T11:55:10.029Z,22.28
2024-04-06T11:56:16.346Z,22.28
2024-04-06T11:57:22.671Z,22.28
2024-04-06T11:58:28.998Z,22.29
2024-04-06T11:59:35.337Z,22.29
2024-04-06T12:00:41.660Z,22.29
2024-04-06T12:01:47.974Z,22.30
2024-04-06T12:02:54.296Z,22.30
2024-04-06T12:04:00.621Z,22.30
2024-04-06T12:05:06.937Z,22.30
2024-04-06T12:06:13.269Z,22.31
2024-04-06T12:07:19.587Z,22.31
2024-04-06T12:08:25.913Z,22.31
2024-04-06T12:09:32.229Z,22.31
2024-04-06T12:10:38.556Z,22.31
2024-04-06T12:11:44.855Z,22.32
2024-04-06T12:12:51.183Z,22.32
2024-04-06T12:13:57.500Z,22.32
2024-04-06T12:15:03.820Z,22.32
2024-04-06T12:16:10.133Z,22.33
2024-04-06T12:17:16.447Z,22.33
2024-04-06T12:18:22.772Z,22.33
2024-04-06T12:19:29.106Z,22.34
2024-04-06T12:20:35.435Z,22.34
2024-04-06T12:21:41.758Z,22.34
2024-04-06T12:22:48.073Z,22.34
2024-04-06T12:23:54.390Z,22.35
2024-04-06T12:25:00.712Z,22.35
2024-04-06T12:26:07.036Z,22.35
2024-04-06T12:27:13.352Z,22.36
2024-04-06T12:28:19.703Z,22.36
2024-04-06T12:29:26.000Z,22.36
2024-04-06T12:30:32.321Z,22.36
2024-04-06T12:31:38.635Z,22.36
2024-04-06T12:32:44.969Z,22.37
2024-04-06T12:33:53.541Z,22.37
2024-04-06T12:35:01.440Z,22.37
2024-04-06T12:36:07.744Z,22.37
2024-04-06T12:37:14.125Z,22.38
2024-04-06T12:38:20.418Z,22.38
2024-04-06T12:39:26.725Z,22.38
2024-04-06T12:40:33.050Z,22.39
2024-04-06T12:41:39.392Z,22.39
2024-04-06T12:42:45.689Z,22.40
2024-04-06T12:43:52.014Z,22.40
2024-04-06T12:44:58.332Z,22.40
2024-04-06T12:46:04.663Z,22.40
2024-04-06T12:47:10.975Z,22.40
2024-04-06T12:48:17.291Z,22.41
2024-04-06T12:49:23.690Z,22.41
2024-04-06T12:50:29.992Z,22.42
2024-04-06T12:51:36.304Z,22.42
2024-04-06T12:52:42.622Z,22.42
2024-04-06T12:53:48.945Z,22.43
2024-04-06T12:54:55.264Z,22.43
2024-04-06T12:56:01.588Z,22.43
2024-04-06T12:57:07.911Z,22.43
2024-04-06T12:58:14.235Z,22.44
2024-04-06T12:59:20.553Z,22.44
2024-04-06T13:00:26.910Z,22.45
2024-04-06T13:01:33.207Z,22.45
2024-04-06T13:02:39.532Z,22.45
2024-04-06T13:03:52.738Z,22.45
2024-04-06T13:04:57.070Z,22.44
2024-04-06T13:06:03.409Z,22.45
2024-04-06T13:07:09.741Z,22.45
2024-04-06T13:08:16.105Z,22.45
2024-04-06T13:09:22.433Z,22.45
2024-04-06T13:10:28.753Z,22.45
2024-04-06T13:11:35.069Z,22.46
2024-04-06T13:12:41.407Z,22.45
2024-04-06T13:13:47.714Z,22.46
2024-04-06T13:14:54.035Z,22.46
2024-04-06T13:16:00.365Z,22.47
2024-04-06T13:17:06.682Z,22.47
2024-04-06T13:18:13.025Z,22.48
2024-04-06T13:19:19.354Z,22.48
2024-04-06T13:20:25.655Z,22.48
2024-04-06T13:21:31.979Z,22.49
2024-04-06T13:22:38.285Z,22.50
2024-04-06T13:23:44.630Z,22.50
2024-04-06T13:24:50.941Z,22.51
2024-04-06T13:25:57.287Z,22.50
2024-04-06T13:27:03.632Z,22.51
2024-04-06T13:28:09.966Z,22.52
2024-04-06T13:29:16.318Z,22.52
2024-04-06T13:30:22.622Z,22.52
2024-04-06T13:31:28.925Z,22.53
2024-04-06T13:32:35.252Z,22.53
2024-04-06T13:33:41.574Z,22.54
2024-04-06T13:34:47.912Z,22.55
2024-04-06T13:35:54.231Z,22.55
2024-04-06T13:37:00.532Z,22.55
2024-04-06T13:38:06.858Z,22.55
2024-04-06T13:39:13.156Z,22.56
2024-04-06T13:40:19.533Z,22.56
2024-04-06T13:41:25.846Z,22.56
2024-04-06T13:42:32.148Z,22.57
2024-04-06T13:43:38.461Z,22.56
2024-04-06T13:44:44.781Z,22.57
2024-04-06T13:45:51.106Z,22.57
2024-04-06T13:46:57.409Z,22.57
2024-04-06T13:48:03.730Z,22.58
2024-04-06T13:49:10.046Z,22.58
2024-04-06T13:50:16.375Z,22.59
2024-04-06T13:51:22.693Z,22.59
2024-04-06T13:52:29.000Z,22.59
2024-04-06T13:53:35.321Z,22.60
2024-04-06T13:54:41.627Z,22.60
2024-04-06T13:55:47.945Z,22.60
2024-04-06T13:56:54.268Z,22.60
2024-04-06T13:58:00.658Z,22.61
2024-04-06T13:59:06.939Z,22.61
2024-04-06T14:00:13.298Z,22.62
2024-04-06T14:01:19.582Z,22.62
2024-04-06T14:02:26.061Z,22.62
2024-04-06T14:03:32.396Z,22.62
2024-04-06T14:04:38.701Z,22.63
2024-04-06T14:05:45.017Z,22.63
2024-04-06T14:06:51.335Z,22.63
2024-04-06T14:07:57.661Z,22.64
2024-04-06T14:09:03.980Z,22.64
2024-04-06T14:10:10.308Z,22.64
2024-04-06T14:11:16.625Z,22.65
2024-04-06T14:12:22.944Z,22.65
2024-04-06T14:13:29.286Z,22.66
2024-04-06T14:14:35.591Z,22.66
2024-04-06T14:15:41.912Z,22.66
2024-04-06T14:16:48.225Z,22.67
2024-04-06T14:17:54.558Z,22.67
2024-04-06T14:19:00.884Z,22.68